sensor_id;sensor_type;location;lat;lon;timestamp;temperature;humidity
44509;DHT22;30214;52.246;14.408;2022-08-25T00:02:10;19.80;99.90
44509;DHT22;30214;52.246;14.408;2022-08-25T00:04:39;19.70;99.90
44509;DHT22;30214;52.246;14.408;2022-08-25T00:07:11;19.70;99.90
44509;DHT22;30214;52.246;14.408;2022-08-25T00:09:42;19.70;99.90
44509;DHT22;30214;52.246;14.408;2022-08-25T00:12:10;19.70;99.90
44509;DHT22;30214;52.246;14.408;2022-08-25T00:14:39;19.60;99.90
44509;DHT22;30214;52.246;14.408;2022-08-25T00:17:11;19.50;99.90
44509;DHT22;30214;52.246;14.408;2022-08-25T00:19:39;19.60;99.90
44509;DHT22;30214;52.246;14.408;2022-08-25T00:22:13;19.60;99.90
44509;DHT22;30214;52.246;14.408;2022-08-25T00:24:43;19.50;99.90
44509;DHT22;30214;52.246;14.408;2022-08-25T00:27:15;19.50;99.90
44509;DHT22;30214;52.246;14.408;2022-08-25T00:29:44;19.50;99.90
44509;DHT22;30214;52.246;14.408;2022-08-25T00:32:14;19.50;99.90
44509;DHT22;30214;52.246;14.408;2022-08-25T00:34:45;19.40;99.90
44509;DHT22;30214;52.246;14.408;2022-08-25T00:37:14;19.40;99.90
44509;DHT22;30214;52.246;14.408;2022-08-25T00:39:42;19.40;99.90
44509;DHT22;30214;52.246;14.408;2022-08-25T00:42:12;19.30;99.90
44509;DHT22;30214;52.246;14.408;2022-08-25T00:44:45;19.30;99.90
44509;DHT22;30214;52.246;14.408;2022-08-25T00:47:14;19.30;99.90
44509;DHT22;30214;52.246;14.408;2022-08-25T00:49:48;19.20;99.90
44509;DHT22;30214;52.246;14.408;2022-08-25T00:52:26;19.20;99.90
44509;DHT22;30214;52.246;14.408;2022-08-25T00:54:58;19.10;99.90
44509;DHT22;30214;52.246;14.408;2022-08-25T00:57:35;19.10;99.90
44509;DHT22;30214;52.246;14.408;2022-08-25T01:00:12;19.10;99.90
44509;DHT22;30214;52.246;14.408;2022-08-25T01:02:47;19.00;99.90
44509;DHT22;30214;52.246;14.408;2022-08-25T01:05:22;19.00;99.90
44509;DHT22;30214;52.246;14.408;2022-08-25T01:08:01;19.00;99.90
44509;DHT22;30214;52.246;14.408;2022-08-25T01:10:34;18.90;99.90
44509;DHT22;30214;52.246;14.408;2022-08-25T01:13:07;18.80;99.90
44509;DHT22;30214;52.246;14.408;2022-08-25T01:15:40;18.70;99.90
44509;DHT22;30214;52.246;14.408;2022-08-25T01:18:09;18.70;99.90
44509;DHT22;30214;52.246;14.408;2022-08-25T01:20:37;18.60;99.90
44509;DHT22;30214;52.246;14.408;2022-08-25T01:23:09;18.60;99.90
44509;DHT22;30214;52.246;14.408;2022-08-25T01:25:44;18.60;99.90
44509;DHT22;30214;52.246;14.408;2022-08-25T01:28:17;18.70;99.90
44509;DHT22;30214;52.246;14.408;2022-08-25T01:30:47;18.60;99.90
44509;DHT22;30214;52.246;14.408;2022-08-25T01:33:17;18.60;99.90
44509;DHT22;30214;52.246;14.408;2022-08-25T01:35:56;18.50;99.90
44509;DHT22;30214;52.246;14.408;2022-08-25T01:38:27;18.50;99.90
44509;DHT22;30214;52.246;14.408;2022-08-25T01:40:55;18.40;99.90
44509;DHT22;30214;52.246;14.408;2022-08-25T01:43:30;18.30;99.90
44509;DHT22;30214;52.246;14.408;2022-08-25T01:46:04;18.30;99.90
44509;DHT22;30214;52.246;14.408;2022-08-25T01:48:35;18.40;99.90
44509;DHT22;30214;52.246;14.408;2022-08-25T01:51:03;18.30;99.90
44509;DHT22;30214;52.246;14.408;2022-08-25T01:53:33;18.30;99.90
44509;DHT22;30214;52.246;14.408;2022-08-25T01:56:08;18.30;99.90
44509;DHT22;30214;52.246;14.408;2022-08-25T01:58:41;18.20;99.90
44509;DHT22;30214;52.246;14.408;2022-08-25T02:01:15;18.20;99.90
44509;DHT22;30214;52.246;14.408;2022-08-25T02:03:50;18.20;99.90
44509;DHT22;30214;52.246;14.408;2022-08-25T02:06:31;18.20;99.90
44509;DHT22;30214;52.246;14.408;2022-08-25T02:09:06;18.10;99.90
44509;DHT22;30214;52.246;14.408;2022-08-25T02:11:44;18.10;99.90
44509;DHT22;30214;52.246;14.408;2022-08-25T02:14:14;18.00;99.90
44509;DHT22;30214;52.246;14.408;2022-08-25T02:16:45;18.10;99.90
44509;DHT22;30214;52.246;14.408;2022-08-25T02:19:17;18.10;99.90
44509;DHT22;30214;52.246;14.408;2022-08-25T02:21:48;18.10;99.90
44509;DHT22;30214;52.246;14.408;2022-08-25T02:24:19;18.00;99.90
44509;DHT22;30214;52.246;14.408;2022-08-25T02:26:52;18.00;99.90
44509;DHT22;30214;52.246;14.408;2022-08-25T02:29:22;17.90;99.90
44509;DHT22;30214;52.246;14.408;2022-08-25T02:31:50;18.00;99.90
44509;DHT22;30214;52.246;14.408;2022-08-25T02:34:18;17.90;99.90
44509;DHT22;30214;52.246;14.408;2022-08-25T02:36:49;17.80;99.90
44509;DHT22;30214;52.246;14.408;2022-08-25T02:39:22;17.80;99.90
44509;DHT22;30214;52.246;14.408;2022-08-25T02:41:51;17.70;99.90
44509;DHT22;30214;52.246;14.408;2022-08-25T02:44:19;17.70;99.90
44509;DHT22;30214;52.246;14.408;2022-08-25T02:46:52;17.70;99.90
44509;DHT22;30214;52.246;14.408;2022-08-25T02:49:21;17.70;99.90
44509;DHT22;30214;52.246;14.408;2022-08-25T02:51:51;17.60;99.90
44509;DHT22;30214;52.246;14.408;2022-08-25T02:54:21;17.60;99.90
44509;DHT22;30214;52.246;14.408;2022-08-25T02:56:52;17.50;99.90
44509;DHT22;30214;52.246;14.408;2022-08-25T02:59:21;17.50;99.90
44509;DHT22;30214;52.246;14.408;2022-08-25T03:01:50;17.50;99.90
44509;DHT22;30214;52.246;14.408;2022-08-25T03:04:19;17.50;99.90
44509;DHT22;30214;52.246;14.408;2022-08-25T03:06:50;17.40;99.90
44509;DHT22;30214;52.246;14.408;2022-08-25T03:09:20;17.40;99.90
44509;DHT22;30214;52.246;14.408;2022-08-25T03:11:50;17.30;99.90
44509;DHT22;30214;52.246;14.408;2022-08-25T03:14:17;17.40;99.90
44509;DHT22;30214;52.246;14.408;2022-08-25T03:16:45;17.40;99.90
44509;DHT22;30214;52.246;14.408;2022-08-25T03:19:12;17.40;99.90
44509;DHT22;30214;52.246;14.408;2022-08-25T03:21:41;17.40;99.90
44509;DHT22;30214;52.246;14.408;2022-08-25T03:24:10;17.40;99.90
44509;DHT22;30214;52.246;14.408;2022-08-25T03:26:39;17.30;99.90
44509;DHT22;30214;52.246;14.408;2022-08-25T03:29:21;17.30;99.90
44509;DHT22;30214;52.246;14.408;2022-08-25T03:31:49;17.30;99.90
44509;DHT22;30214;52.246;14.408;2022-08-25T03:34:18;17.20;99.90
44509;DHT22;30214;52.246;14.408;2022-08-25T03:36:47;17.20;99.90
44509;DHT22;30214;52.246;14.408;2022-08-25T03:39:15;17.20;99.90
44509;DHT22;30214;52.246;14.408;2022-08-25T03:41:45;17.20;99.90
44509;DHT22;30214;52.246;14.408;2022-08-25T03:44:13;17.20;99.90
44509;DHT22;30214;52.246;14.408;2022-08-25T03:46:44;17.20;99.90
44509;DHT22;30214;52.246;14.408;2022-08-25T03:49:15;17.20;99.90
44509;DHT22;30214;52.246;14.408;2022-08-25T03:51:45;17.20;99.90
44509;DHT22;30214;52.246;14.408;2022-08-25T03:54:14;17.30;99.90
44509;DHT22;30214;52.246;14.408;2022-08-25T03:56:44;17.20;99.90
44509;DHT22;30214;52.246;14.408;2022-08-25T03:59:12;17.10;99.90
44509;DHT22;30214;52.246;14.408;2022-08-25T04:01:41;17.00;99.90
44509;DHT22;30214;52.246;14.408;2022-08-25T04:04:10;16.90;99.90
44509;DHT22;30214;52.246;14.408;2022-08-25T04:06:38;16.80;99.90
44509;DHT22;30214;52.246;14.408;2022-08-25T04:09:06;16.80;99.90
44509;DHT22;30214;52.246;14.408;2022-08-25T04:11:34;16.70;99.90
44509;DHT22;30214;52.246;14.408;2022-08-25T04:14:03;16.90;99.90
44509;DHT22;30214;52.246;14.408;2022-08-25T04:16:33;17.20;99.90
44509;DHT22;30214;52.246;14.408;2022-08-25T04:19:03;17.30;99.90
44509;DHT22;30214;52.246;14.408;2022-08-25T04:21:32;17.30;99.90
44509;DHT22;30214;52.246;14.408;2022-08-25T04:23:59;17.40;99.90
44509;DHT22;30214;52.246;14.408;2022-08-25T04:26:29;17.40;99.90
44509;DHT22;30214;52.246;14.408;2022-08-25T04:28:58;17.50;99.90
44509;DHT22;30214;52.246;14.408;2022-08-25T04:31:31;17.50;99.90
44509;DHT22;30214;52.246;14.408;2022-08-25T04:34:00;17.60;99.90
44509;DHT22;30214;52.246;14.408;2022-08-25T04:36:28;17.60;99.90
44509;DHT22;30214;52.246;14.408;2022-08-25T04:38:56;17.70;99.90
44509;DHT22;30214;52.246;14.408;2022-08-25T04:41:24;17.70;99.90
44509;DHT22;30214;52.246;14.408;2022-08-25T04:43:52;17.70;99.90
44509;DHT22;30214;52.246;14.408;2022-08-25T04:46:25;17.70;99.90
44509;DHT22;30214;52.246;14.408;2022-08-25T04:48:56;17.80;99.90
44509;DHT22;30214;52.246;14.408;2022-08-25T04:51:26;17.90;99.90
44509;DHT22;30214;52.246;14.408;2022-08-25T04:53:57;18.00;99.90
44509;DHT22;30214;52.246;14.408;2022-08-25T04:56:24;18.10;99.90
44509;DHT22;30214;52.246;14.408;2022-08-25T04:58:53;18.10;99.90
44509;DHT22;30214;52.246;14.408;2022-08-25T05:01:22;18.20;99.90
44509;DHT22;30214;52.246;14.408;2022-08-25T05:03:54;18.20;99.90
44509;DHT22;30214;52.246;14.408;2022-08-25T05:06:25;18.20;99.90
44509;DHT22;30214;52.246;14.408;2022-08-25T05:08:53;18.20;99.90
44509;DHT22;30214;52.246;14.408;2022-08-25T05:11:22;18.30;99.90
44509;DHT22;30214;52.246;14.408;2022-08-25T05:13:52;18.20;99.90
44509;DHT22;30214;52.246;14.408;2022-08-25T05:16:21;18.20;99.90
44509;DHT22;30214;52.246;14.408;2022-08-25T05:18:50;18.20;99.90
44509;DHT22;30214;52.246;14.408;2022-08-25T05:21:21;18.20;99.90
44509;DHT22;30214;52.246;14.408;2022-08-25T05:23:49;18.30;99.90
44509;DHT22;30214;52.246;14.408;2022-08-25T05:26:19;18.30;99.90
44509;DHT22;30214;52.246;14.408;2022-08-25T05:28:48;18.30;99.90
44509;DHT22;30214;52.246;14.408;2022-08-25T05:31:17;18.40;99.90
44509;DHT22;30214;52.246;14.408;2022-08-25T05:33:45;18.40;99.90
44509;DHT22;30214;52.246;14.408;2022-08-25T05:36:13;18.50;99.90
44509;DHT22;30214;52.246;14.408;2022-08-25T05:38:42;18.60;99.90
44509;DHT22;30214;52.246;14.408;2022-08-25T05:41:12;18.60;99.90
44509;DHT22;30214;52.246;14.408;2022-08-25T05:43:42;18.60;99.90
44509;DHT22;30214;52.246;14.408;2022-08-25T05:46:11;18.60;99.90
44509;DHT22;30214;52.246;14.408;2022-08-25T05:48:38;18.60;99.90
44509;DHT22;30214;52.246;14.408;2022-08-25T05:51:07;18.60;99.90
44509;DHT22;30214;52.246;14.408;2022-08-25T05:53:37;18.60;99.90
44509;DHT22;30214;52.246;14.408;2022-08-25T05:56:08;18.60;99.90
44509;DHT22;30214;52.246;14.408;2022-08-25T05:58:36;18.70;99.90
44509;DHT22;30214;52.246;14.408;2022-08-25T06:01:04;18.80;99.90
44509;DHT22;30214;52.246;14.408;2022-08-25T06:03:46;18.90;99.90
44509;DHT22;30214;52.246;14.408;2022-08-25T06:06:13;19.00;99.90
44509;DHT22;30214;52.246;14.408;2022-08-25T06:08:41;18.90;99.90
44509;DHT22;30214;52.246;14.408;2022-08-25T06:11:11;19.00;99.90
44509;DHT22;30214;52.246;14.408;2022-08-25T06:13:38;19.00;99.90
44509;DHT22;30214;52.246;14.408;2022-08-25T06:16:06;19.00;99.90
44509;DHT22;30214;52.246;14.408;2022-08-25T06:18:33;19.10;99.90
44509;DHT22;30214;52.246;14.408;2022-08-25T06:21:07;19.10;99.90
44509;DHT22;30214;52.246;14.408;2022-08-25T06:23:36;19.00;99.90
44509;DHT22;30214;52.246;14.408;2022-08-25T06:26:04;19.00;99.90
44509;DHT22;30214;52.246;14.408;2022-08-25T06:28:33;19.10;99.90
44509;DHT22;30214;52.246;14.408;2022-08-25T06:31:01;19.10;99.90
44509;DHT22;30214;52.246;14.408;2022-08-25T06:33:28;19.20;99.90
44509;DHT22;30214;52.246;14.408;2022-08-25T06:35:56;19.20;99.90
44509;DHT22;30214;52.246;14.408;2022-08-25T06:38:25;19.20;99.90
44509;DHT22;30214;52.246;14.408;2022-08-25T06:40:52;19.30;99.90
44509;DHT22;30214;52.246;14.408;2022-08-25T06:43:22;19.30;99.90
44509;DHT22;30214;52.246;14.408;2022-08-25T06:45:51;19.40;99.90
44509;DHT22;30214;52.246;14.408;2022-08-25T06:48:18;19.50;99.90
44509;DHT22;30214;52.246;14.408;2022-08-25T06:50:45;19.50;99.90
44509;DHT22;30214;52.246;14.408;2022-08-25T06:53:12;19.40;99.90
44509;DHT22;30214;52.246;14.408;2022-08-25T06:55:40;19.50;99.90
44509;DHT22;30214;52.246;14.408;2022-08-25T06:58:07;19.60;99.90
44509;DHT22;30214;52.246;14.408;2022-08-25T07:00:35;19.70;99.90
44509;DHT22;30214;52.246;14.408;2022-08-25T07:03:04;19.80;99.90
44509;DHT22;30214;52.246;14.408;2022-08-25T07:05:31;19.90;99.90
44509;DHT22;30214;52.246;14.408;2022-08-25T07:07:58;19.90;99.90
44509;DHT22;30214;52.246;14.408;2022-08-25T07:10:26;20.10;99.90
44509;DHT22;30214;52.246;14.408;2022-08-25T07:12:53;20.20;99.90
44509;DHT22;30214;52.246;14.408;2022-08-25T07:15:20;20.20;99.90
44509;DHT22;30214;52.246;14.408;2022-08-25T07:17:48;20.20;99.90
44509;DHT22;30214;52.246;14.408;2022-08-25T07:20:17;20.20;99.90
44509;DHT22;30214;52.246;14.408;2022-08-25T07:22:44;20.30;99.90
44509;DHT22;30214;52.246;14.408;2022-08-25T07:25:11;20.30;99.90
44509;DHT22;30214;52.246;14.408;2022-08-25T07:27:38;20.30;99.90
44509;DHT22;30214;52.246;14.408;2022-08-25T07:30:07;20.30;99.90
44509;DHT22;30214;52.246;14.408;2022-08-25T07:32:35;20.20;99.90
44509;DHT22;30214;52.246;14.408;2022-08-25T07:35:02;20.20;99.90
44509;DHT22;30214;52.246;14.408;2022-08-25T07:37:47;20.30;99.90
44509;DHT22;30214;52.246;14.408;2022-08-25T07:40:17;20.30;99.90
44509;DHT22;30214;52.246;14.408;2022-08-25T07:42:48;20.40;99.90
44509;DHT22;30214;52.246;14.408;2022-08-25T07:45:17;20.40;99.90
44509;DHT22;30214;52.246;14.408;2022-08-25T07:47:45;20.30;99.90
44509;DHT22;30214;52.246;14.408;2022-08-25T07:50:12;20.40;99.90
44509;DHT22;30214;52.246;14.408;2022-08-25T07:52:40;20.40;99.90
44509;DHT22;30214;52.246;14.408;2022-08-25T07:55:09;20.40;99.90
44509;DHT22;30214;52.246;14.408;2022-08-25T07:57:38;20.40;99.90
44509;DHT22;30214;52.246;14.408;2022-08-25T08:00:07;20.60;99.90
44509;DHT22;30214;52.246;14.408;2022-08-25T08:02:37;20.70;99.90
44509;DHT22;30214;52.246;14.408;2022-08-25T08:05:06;20.80;99.90
44509;DHT22;30214;52.246;14.408;2022-08-25T08:07:33;20.90;99.90
44509;DHT22;30214;52.246;14.408;2022-08-25T08:10:00;21.00;99.90
44509;DHT22;30214;52.246;14.408;2022-08-25T08:12:29;20.70;99.90
44509;DHT22;30214;52.246;14.408;2022-08-25T08:14:57;20.50;99.90
44509;DHT22;30214;52.246;14.408;2022-08-25T08:17:25;20.40;99.90
44509;DHT22;30214;52.246;14.408;2022-08-25T08:19:52;20.40;99.90
44509;DHT22;30214;52.246;14.408;2022-08-25T08:22:20;20.60;99.90
44509;DHT22;30214;52.246;14.408;2022-08-25T08:24:47;20.60;99.90
44509;DHT22;30214;52.246;14.408;2022-08-25T08:27:14;20.70;99.90
44509;DHT22;30214;52.246;14.408;2022-08-25T08:29:42;20.70;99.90
44509;DHT22;30214;52.246;14.408;2022-08-25T08:32:11;20.60;99.90
44509;DHT22;30214;52.246;14.408;2022-08-25T08:34:39;20.70;99.90
44509;DHT22;30214;52.246;14.408;2022-08-25T08:37:06;20.70;99.90
44509;DHT22;30214;52.246;14.408;2022-08-25T08:39:36;20.70;99.90
44509;DHT22;30214;52.246;14.408;2022-08-25T08:42:20;20.80;99.90
44509;DHT22;30214;52.246;14.408;2022-08-25T08:45:15;20.90;99.90
44509;DHT22;30214;52.246;14.408;2022-08-25T08:48:07;21.10;99.90
44509;DHT22;30214;52.246;14.408;2022-08-25T08:50:47;21.20;99.90
44509;DHT22;30214;52.246;14.408;2022-08-25T08:53:26;21.10;99.90
44509;DHT22;30214;52.246;14.408;2022-08-25T08:55:59;21.20;99.90
44509;DHT22;30214;52.246;14.408;2022-08-25T08:58:35;21.20;99.90
44509;DHT22;30214;52.246;14.408;2022-08-25T09:01:09;21.20;99.90
44509;DHT22;30214;52.246;14.408;2022-08-25T09:03:40;21.00;99.90
44509;DHT22;30214;52.246;14.408;2022-08-25T09:06:11;20.90;99.90
44509;DHT22;30214;52.246;14.408;2022-08-25T09:08:41;20.90;99.90
44509;DHT22;30214;52.246;14.408;2022-08-25T09:11:12;21.00;99.90
44509;DHT22;30214;52.246;14.408;2022-08-25T09:13:58;21.10;99.90
44509;DHT22;30214;52.246;14.408;2022-08-25T09:16:39;21.30;99.90
44509;DHT22;30214;52.246;14.408;2022-08-25T09:22:28;21.80;99.90
44509;DHT22;30214;52.246;14.408;2022-08-25T09:25:06;22.20;99.90
44509;DHT22;30214;52.246;14.408;2022-08-25T09:27:42;22.70;99.90
44509;DHT22;30214;52.246;14.408;2022-08-25T09:30:15;22.80;99.90
44509;DHT22;30214;52.246;14.408;2022-08-25T09:32:47;22.60;99.90
44509;DHT22;30214;52.246;14.408;2022-08-25T09:35:20;22.60;99.90
44509;DHT22;30214;52.246;14.408;2022-08-25T09:37:58;22.70;99.90
44509;DHT22;30214;52.246;14.408;2022-08-25T09:40:27;22.80;99.90
44509;DHT22;30214;52.246;14.408;2022-08-25T09:42:58;22.90;99.90
44509;DHT22;30214;52.246;14.408;2022-08-25T09:45:38;23.00;99.90
44509;DHT22;30214;52.246;14.408;2022-08-25T09:48:24;22.90;99.90
44509;DHT22;30214;52.246;14.408;2022-08-25T09:50:57;22.90;99.90
44509;DHT22;30214;52.246;14.408;2022-08-25T09:53:27;22.90;99.90
44509;DHT22;30214;52.246;14.408;2022-08-25T09:55:59;23.20;99.90
44509;DHT22;30214;52.246;14.408;2022-08-25T09:58:29;23.40;99.90
44509;DHT22;30214;52.246;14.408;2022-08-25T10:01:03;23.70;99.90
44509;DHT22;30214;52.246;14.408;2022-08-25T10:03:34;23.50;99.90
44509;DHT22;30214;52.246;14.408;2022-08-25T10:06:04;23.60;99.90
44509;DHT22;30214;52.246;14.408;2022-08-25T10:08:36;23.90;99.90
44509;DHT22;30214;52.246;14.408;2022-08-25T10:11:08;24.10;99.90
44509;DHT22;30214;52.246;14.408;2022-08-25T10:13:43;24.00;99.90
44509;DHT22;30214;52.246;14.408;2022-08-25T10:16:21;24.20;99.90
44509;DHT22;30214;52.246;14.408;2022-08-25T10:19:03;24.40;99.90
44509;DHT22;30214;52.246;14.408;2022-08-25T10:21:33;24.70;99.90
44509;DHT22;30214;52.246;14.408;2022-08-25T10:24:00;25.00;99.90
44509;DHT22;30214;52.246;14.408;2022-08-25T10:26:36;24.80;99.90
44509;DHT22;30214;52.246;14.408;2022-08-25T10:29:23;24.60;99.90
44509;DHT22;30214;52.246;14.408;2022-08-25T10:32:03;24.70;99.90
44509;DHT22;30214;52.246;14.408;2022-08-25T10:34:42;24.60;99.90
44509;DHT22;30214;52.246;14.408;2022-08-25T10:37:19;25.00;99.90
44509;DHT22;30214;52.246;14.408;2022-08-25T10:39:58;25.00;99.90
44509;DHT22;30214;52.246;14.408;2022-08-25T10:42:35;25.30;99.90
44509;DHT22;30214;52.246;14.408;2022-08-25T10:45:15;25.50;99.90
44509;DHT22;30214;52.246;14.408;2022-08-25T10:48:24;25.60;99.90
44509;DHT22;30214;52.246;14.408;2022-08-25T10:51:09;25.40;99.90
44509;DHT22;30214;52.246;14.408;2022-08-25T10:53:53;25.50;99.90
44509;DHT22;30214;52.246;14.408;2022-08-25T10:56:26;25.80;99.90
44509;DHT22;30214;52.246;14.408;2022-08-25T10:59:09;26.00;99.90
44509;DHT22;30214;52.246;14.408;2022-08-25T11:02:14;26.00;99.90
44509;DHT22;30214;52.246;14.408;2022-08-25T11:04:59;26.00;99.90
44509;DHT22;30214;52.246;14.408;2022-08-25T11:07:34;26.00;99.90
44509;DHT22;30214;52.246;14.408;2022-08-25T11:10:07;26.00;99.90
44509;DHT22;30214;52.246;14.408;2022-08-25T11:12:37;26.10;99.90
44509;DHT22;30214;52.246;14.408;2022-08-25T11:15:09;26.10;99.90
44509;DHT22;30214;52.246;14.408;2022-08-25T11:17:41;26.00;99.90
44509;DHT22;30214;52.246;14.408;2022-08-25T11:20:18;26.00;99.90
44509;DHT22;30214;52.246;14.408;2022-08-25T11:22:52;26.00;99.90
44509;DHT22;30214;52.246;14.408;2022-08-25T11:25:27;26.00;99.90
44509;DHT22;30214;52.246;14.408;2022-08-25T11:27:58;26.10;99.90
44509;DHT22;30214;52.246;14.408;2022-08-25T11:30:28;26.20;99.90
44509;DHT22;30214;52.246;14.408;2022-08-25T11:32:56;26.20;99.90
44509;DHT22;30214;52.246;14.408;2022-08-25T11:35:27;26.00;99.90
44509;DHT22;30214;52.246;14.408;2022-08-25T11:38:09;26.10;99.90
44509;DHT22;30214;52.246;14.408;2022-08-25T11:40:52;26.00;99.90
44509;DHT22;30214;52.246;14.408;2022-08-25T11:43:42;26.00;99.90
44509;DHT22;30214;52.246;14.408;2022-08-25T11:46:27;26.10;99.90
44509;DHT22;30214;52.246;14.408;2022-08-25T11:49:20;26.00;99.90
44509;DHT22;30214;52.246;14.408;2022-08-25T11:51:54;25.90;99.90
44509;DHT22;30214;52.246;14.408;2022-08-25T11:54:25;25.90;99.90
44509;DHT22;30214;52.246;14.408;2022-08-25T11:56:59;26.10;99.90
44509;DHT22;30214;52.246;14.408;2022-08-25T12:02:40;25.90;99.90
44509;DHT22;30214;52.246;14.408;2022-08-25T12:05:47;25.80;99.90
44509;DHT22;30214;52.246;14.408;2022-08-25T12:08:47;25.50;99.90
44509;DHT22;30214;52.246;14.408;2022-08-25T12:11:51;25.50;99.90
44509;DHT22;30214;52.246;14.408;2022-08-25T12:14:41;25.60;99.90
44509;DHT22;30214;52.246;14.408;2022-08-25T12:17:19;25.60;99.90
44509;DHT22;30214;52.246;14.408;2022-08-25T12:19:55;25.50;99.90
44509;DHT22;30214;52.246;14.408;2022-08-25T12:25:44;25.60;99.90
44509;DHT22;30214;52.246;14.408;2022-08-25T12:28:44;25.50;99.90
44509;DHT22;30214;52.246;14.408;2022-08-25T12:31:22;25.60;99.90
44509;DHT22;30214;52.246;14.408;2022-08-25T12:34:08;25.40;99.90
44509;DHT22;30214;52.246;14.408;2022-08-25T12:36:55;25.10;99.90
44509;DHT22;30214;52.246;14.408;2022-08-25T12:39:29;25.10;99.90
44509;DHT22;30214;52.246;14.408;2022-08-25T12:42:00;25.30;99.90
44509;DHT22;30214;52.246;14.408;2022-08-25T12:44:41;25.10;99.90
44509;DHT22;30214;52.246;14.408;2022-08-25T12:47:26;25.10;99.90
44509;DHT22;30214;52.246;14.408;2022-08-25T12:50:26;25.00;99.90
44509;DHT22;30214;52.246;14.408;2022-08-25T12:53:09;25.00;99.90
44509;DHT22;30214;52.246;14.408;2022-08-25T12:55:41;25.00;99.90
44509;DHT22;30214;52.246;14.408;2022-08-25T12:58:12;24.90;99.90
44509;DHT22;30214;52.246;14.408;2022-08-25T13:00:54;24.90;99.90
44509;DHT22;30214;52.246;14.408;2022-08-25T13:06:41;24.60;99.90
44509;DHT22;30214;52.246;14.408;2022-08-25T13:12:36;24.30;99.90
44509;DHT22;30214;52.246;14.408;2022-08-25T13:15:13;24.60;99.90
44509;DHT22;30214;52.246;14.408;2022-08-25T13:17:43;24.80;99.90
44509;DHT22;30214;52.246;14.408;2022-08-25T13:20:13;24.80;99.90
44509;DHT22;30214;52.246;14.408;2022-08-25T13:22:44;24.70;99.90
44509;DHT22;30214;52.246;14.408;2022-08-25T13:25:15;24.60;99.90
44509;DHT22;30214;52.246;14.408;2022-08-25T13:27:48;24.70;99.90
44509;DHT22;30214;52.246;14.408;2022-08-25T13:30:26;24.80;99.90
44509;DHT22;30214;52.246;14.408;2022-08-25T13:32:56;24.80;99.90
44509;DHT22;30214;52.246;14.408;2022-08-25T13:35:26;24.90;99.90
44509;DHT22;30214;52.246;14.408;2022-08-25T13:38:11;25.00;99.90
44509;DHT22;30214;52.246;14.408;2022-08-25T13:40:38;24.90;99.90
44509;DHT22;30214;52.246;14.408;2022-08-25T13:43:07;24.90;99.90
44509;DHT22;30214;52.246;14.408;2022-08-25T13:45:38;25.00;99.90
44509;DHT22;30214;52.246;14.408;2022-08-25T13:48:09;25.10;99.90
44509;DHT22;30214;52.246;14.408;2022-08-25T13:50:38;25.10;99.90
44509;DHT22;30214;52.246;14.408;2022-08-25T13:53:12;25.10;99.90
44509;DHT22;30214;52.246;14.408;2022-08-25T13:55:48;25.10;99.90
44509;DHT22;30214;52.246;14.408;2022-08-25T13:58:18;25.20;99.90
44509;DHT22;30214;52.246;14.408;2022-08-25T14:00:58;25.30;99.90
44509;DHT22;30214;52.246;14.408;2022-08-25T14:03:33;25.40;99.90
44509;DHT22;30214;52.246;14.408;2022-08-25T14:06:07;25.40;99.90
44509;DHT22;30214;52.246;14.408;2022-08-25T14:08:40;25.50;99.90
44509;DHT22;30214;52.246;14.408;2022-08-25T14:11:11;25.50;99.90
44509;DHT22;30214;52.246;14.408;2022-08-25T14:13:42;25.50;99.90
44509;DHT22;30214;52.246;14.408;2022-08-25T14:16:13;25.60;99.90
44509;DHT22;30214;52.246;14.408;2022-08-25T14:18:50;25.70;99.90
44509;DHT22;30214;52.246;14.408;2022-08-25T14:21:22;25.80;99.90
44509;DHT22;30214;52.246;14.408;2022-08-25T14:23:52;25.80;99.90
44509;DHT22;30214;52.246;14.408;2022-08-25T14:26:20;25.80;99.90
44509;DHT22;30214;52.246;14.408;2022-08-25T14:28:48;25.70;99.90
44509;DHT22;30214;52.246;14.408;2022-08-25T14:31:19;25.80;99.90
44509;DHT22;30214;52.246;14.408;2022-08-25T14:33:54;25.90;99.90
44509;DHT22;30214;52.246;14.408;2022-08-25T14:36:23;25.90;99.90
44509;DHT22;30214;52.246;14.408;2022-08-25T14:38:50;26.00;99.90
44509;DHT22;30214;52.246;14.408;2022-08-25T14:41:19;26.10;99.90
44509;DHT22;30214;52.246;14.408;2022-08-25T14:43:46;26.00;99.90
44509;DHT22;30214;52.246;14.408;2022-08-25T14:46:18;26.00;99.90
44509;DHT22;30214;52.246;14.408;2022-08-25T14:48:51;26.00;99.90
44509;DHT22;30214;52.246;14.408;2022-08-25T14:51:20;26.10;99.90
44509;DHT22;30214;52.246;14.408;2022-08-25T14:53:48;26.00;99.90
44509;DHT22;30214;52.246;14.408;2022-08-25T14:56:16;26.10;99.90
44509;DHT22;30214;52.246;14.408;2022-08-25T14:58:43;26.10;99.90
44509;DHT22;30214;52.246;14.408;2022-08-25T15:01:11;26.10;99.90
44509;DHT22;30214;52.246;14.408;2022-08-25T15:03:42;26.20;99.90
44509;DHT22;30214;52.246;14.408;2022-08-25T15:06:14;26.30;99.90
44509;DHT22;30214;52.246;14.408;2022-08-25T15:08:43;26.40;99.90
44509;DHT22;30214;52.246;14.408;2022-08-25T15:11:28;26.30;99.90
44509;DHT22;30214;52.246;14.408;2022-08-25T15:13:56;26.40;99.90
44509;DHT22;30214;52.246;14.408;2022-08-25T15:16:27;26.30;99.90
44509;DHT22;30214;52.246;14.408;2022-08-25T15:18:56;26.10;99.90
44509;DHT22;30214;52.246;14.408;2022-08-25T15:21:24;26.10;99.90
44509;DHT22;30214;52.246;14.408;2022-08-25T15:23:52;26.20;99.90
44509;DHT22;30214;52.246;14.408;2022-08-25T15:26:19;26.20;99.90
44509;DHT22;30214;52.246;14.408;2022-08-25T15:28:48;26.30;99.90
44509;DHT22;30214;52.246;14.408;2022-08-25T15:31:17;26.20;99.90
44509;DHT22;30214;52.246;14.408;2022-08-25T15:33:45;26.20;99.90
44509;DHT22;30214;52.246;14.408;2022-08-25T15:36:15;26.20;99.90
44509;DHT22;30214;52.246;14.408;2022-08-25T15:38:44;26.20;99.90
44509;DHT22;30214;52.246;14.408;2022-08-25T15:41:11;26.30;99.90
44509;DHT22;30214;52.246;14.408;2022-08-25T15:43:39;26.30;99.90
44509;DHT22;30214;52.246;14.408;2022-08-25T15:46:08;26.20;99.90
44509;DHT22;30214;52.246;14.408;2022-08-25T15:48:39;26.20;99.90
44509;DHT22;30214;52.246;14.408;2022-08-25T15:51:07;26.20;99.90
44509;DHT22;30214;52.246;14.408;2022-08-25T15:53:34;26.30;99.90
44509;DHT22;30214;52.246;14.408;2022-08-25T15:56:05;26.20;99.90
44509;DHT22;30214;52.246;14.408;2022-08-25T15:58:33;26.20;99.90
44509;DHT22;30214;52.246;14.408;2022-08-25T16:01:01;26.20;99.90
44509;DHT22;30214;52.246;14.408;2022-08-25T16:03:28;26.20;99.90